!!! Benutzen Sie für Ihre Flugvorbereitung die offiziellen Quellen !!!

Metar:

EDQM 180950Z 19007KT 140V230 9999 FEW033 SCT170 23/15 Q1017

QNH: 1017
Temperatur: 23
Dew Point : 15

 

METAR (decoded)